sensor_id;sensor_type;location;lat;lon;timestamp;P1;durP1;ratioP1;P2;durP2;ratioP2
59972;SDS011;55298;-36.624;-64.282;2022-07-25T00:01:06;4.13;;;3.70;;
59972;SDS011;55298;-36.624;-64.282;2022-07-25T00:03:34;3.90;;;3.70;;
59972;SDS011;55298;-36.624;-64.282;2022-07-25T00:06:06;5.95;;;3.90;;
59972;SDS011;55298;-36.624;-64.282;2022-07-25T00:08:35;4.60;;;4.13;;
59972;SDS011;55298;-36.624;-64.282;2022-07-25T00:11:04;6.35;;;3.55;;
59972;SDS011;55298;-36.624;-64.282;2022-07-25T00:13:32;4.72;;;4.20;;
59972;SDS011;55298;-36.624;-64.282;2022-07-25T00:16:01;3.70;;;3.50;;
59972;SDS011;55298;-36.624;-64.282;2022-07-25T00:18:29;4.00;;;3.72;;
59972;SDS011;55298;-36.624;-64.282;2022-07-25T00:20:57;4.13;;;3.58;;
59972;SDS011;55298;-36.624;-64.282;2022-07-25T00:23:26;4.50;;;4.18;;
59972;SDS011;55298;-36.624;-64.282;2022-07-25T00:25:55;4.20;;;3.80;;
59972;SDS011;55298;-36.624;-64.282;2022-07-25T00:28:23;4.15;;;3.85;;
59972;SDS011;55298;-36.624;-64.282;2022-07-25T00:30:53;5.93;;;4.00;;
59972;SDS011;55298;-36.624;-64.282;2022-07-25T00:33:21;4.60;;;4.30;;
59972;SDS011;55298;-36.624;-64.282;2022-07-25T00:35:50;4.60;;;4.20;;
59972;SDS011;55298;-36.624;-64.282;2022-07-25T00:38:19;4.78;;;4.10;;
59972;SDS011;55298;-36.624;-64.282;2022-07-25T00:40:47;5.50;;;3.60;;
59972;SDS011;55298;-36.624;-64.282;2022-07-25T00:43:15;13.77;;;4.30;;
59972;SDS011;55298;-36.624;-64.282;2022-07-25T00:45:43;4.35;;;3.85;;
59972;SDS011;55298;-36.624;-64.282;2022-07-25T00:48:12;4.90;;;4.50;;
59972;SDS011;55298;-36.624;-64.282;2022-07-25T00:50:41;6.80;;;4.28;;
59972;SDS011;55298;-36.624;-64.282;2022-07-25T00:53:10;6.30;;;4.75;;
59972;SDS011;55298;-36.624;-64.282;2022-07-25T00:55:40;7.03;;;5.03;;
59972;SDS011;55298;-36.624;-64.282;2022-07-25T00:58:09;5.10;;;4.43;;
59972;SDS011;55298;-36.624;-64.282;2022-07-25T01:00:37;6.32;;;4.43;;
59972;SDS011;55298;-36.624;-64.282;2022-07-25T01:03:07;5.07;;;4.40;;
59972;SDS011;55298;-36.624;-64.282;2022-07-25T01:05:36;5.32;;;4.38;;
59972;SDS011;55298;-36.624;-64.282;2022-07-25T01:08:05;6.45;;;4.70;;
59972;SDS011;55298;-36.624;-64.282;2022-07-25T01:10:34;5.90;;;4.88;;
59972;SDS011;55298;-36.624;-64.282;2022-07-25T01:13:03;6.60;;;4.32;;
59972;SDS011;55298;-36.624;-64.282;2022-07-25T01:15:31;4.88;;;4.47;;
59972;SDS011;55298;-36.624;-64.282;2022-07-25T01:18:00;4.80;;;4.40;;
59972;SDS011;55298;-36.624;-64.282;2022-07-25T01:20:28;5.65;;;4.93;;
59972;SDS011;55298;-36.624;-64.282;2022-07-25T01:22:58;4.80;;;4.40;;
59972;SDS011;55298;-36.624;-64.282;2022-07-25T01:25:26;5.15;;;4.20;;
59972;SDS011;55298;-36.624;-64.282;2022-07-25T01:27:56;5.32;;;4.82;;
59972;SDS011;55298;-36.624;-64.282;2022-07-25T01:30:24;5.75;;;4.43;;
59972;SDS011;55298;-36.624;-64.282;2022-07-25T01:32:55;5.60;;;5.10;;
59972;SDS011;55298;-36.624;-64.282;2022-07-25T01:35:24;10.38;;;4.75;;
59972;SDS011;55298;-36.624;-64.282;2022-07-25T01:37:52;7.07;;;4.88;;
59972;SDS011;55298;-36.624;-64.282;2022-07-25T01:40:22;6.05;;;5.20;;
59972;SDS011;55298;-36.624;-64.282;2022-07-25T01:42:51;6.00;;;4.65;;
59972;SDS011;55298;-36.624;-64.282;2022-07-25T01:45:19;5.05;;;4.55;;
59972;SDS011;55298;-36.624;-64.282;2022-07-25T01:47:47;5.55;;;5.05;;
59972;SDS011;55298;-36.624;-64.282;2022-07-25T01:50:15;10.40;;;5.60;;
59972;SDS011;55298;-36.624;-64.282;2022-07-25T01:52:44;6.38;;;5.05;;
59972;SDS011;55298;-36.624;-64.282;2022-07-25T01:55:12;9.13;;;5.25;;
59972;SDS011;55298;-36.624;-64.282;2022-07-25T01:57:40;5.50;;;5.00;;
59972;SDS011;55298;-36.624;-64.282;2022-07-25T02:00:10;8.18;;;6.30;;
59972;SDS011;55298;-36.624;-64.282;2022-07-25T02:02:40;6.72;;;5.43;;
59972;SDS011;55298;-36.624;-64.282;2022-07-25T02:05:11;6.20;;;5.28;;
59972;SDS011;55298;-36.624;-64.282;2022-07-25T02:07:41;5.72;;;5.30;;
59972;SDS011;55298;-36.624;-64.282;2022-07-25T02:10:09;8.85;;;5.47;;
59972;SDS011;55298;-36.624;-64.282;2022-07-25T02:12:38;7.78;;;5.28;;
59972;SDS011;55298;-36.624;-64.282;2022-07-25T02:15:09;8.55;;;5.43;;
59972;SDS011;55298;-36.624;-64.282;2022-07-25T02:17:37;6.57;;;5.28;;
59972;SDS011;55298;-36.624;-64.282;2022-07-25T02:20:06;9.23;;;5.45;;
59972;SDS011;55298;-36.624;-64.282;2022-07-25T02:22:35;6.35;;;4.93;;
59972;SDS011;55298;-36.624;-64.282;2022-07-25T02:25:04;6.47;;;5.53;;
59972;SDS011;55298;-36.624;-64.282;2022-07-25T02:27:34;6.10;;;5.53;;
59972;SDS011;55298;-36.624;-64.282;2022-07-25T02:30:03;8.48;;;5.40;;
59972;SDS011;55298;-36.624;-64.282;2022-07-25T02:32:32;7.85;;;5.38;;
59972;SDS011;55298;-36.624;-64.282;2022-07-25T02:35:01;7.70;;;5.20;;
59972;SDS011;55298;-36.624;-64.282;2022-07-25T02:37:30;8.70;;;6.00;;
59972;SDS011;55298;-36.624;-64.282;2022-07-25T02:39:59;8.18;;;6.03;;
59972;SDS011;55298;-36.624;-64.282;2022-07-25T02:42:28;7.40;;;5.53;;
59972;SDS011;55298;-36.624;-64.282;2022-07-25T02:44:57;6.25;;;5.65;;
59972;SDS011;55298;-36.624;-64.282;2022-07-25T02:47:25;7.70;;;5.65;;
59972;SDS011;55298;-36.624;-64.282;2022-07-25T02:49:54;7.78;;;5.60;;
59972;SDS011;55298;-36.624;-64.282;2022-07-25T02:52:24;7.45;;;6.18;;
59972;SDS011;55298;-36.624;-64.282;2022-07-25T02:54:51;7.50;;;5.90;;
59972;SDS011;55298;-36.624;-64.282;2022-07-25T02:57:20;6.50;;;5.13;;
59972;SDS011;55298;-36.624;-64.282;2022-07-25T02:59:48;6.78;;;6.07;;
59972;SDS011;55298;-36.624;-64.282;2022-07-25T03:02:18;7.65;;;5.72;;
59972;SDS011;55298;-36.624;-64.282;2022-07-25T03:04:46;7.45;;;5.85;;
59972;SDS011;55298;-36.624;-64.282;2022-07-25T03:07:16;7.07;;;5.95;;
59972;SDS011;55298;-36.624;-64.282;2022-07-25T03:09:44;7.05;;;6.40;;
59972;SDS011;55298;-36.624;-64.282;2022-07-25T03:12:13;6.43;;;5.88;;
59972;SDS011;55298;-36.624;-64.282;2022-07-25T03:14:42;6.93;;;6.10;;
59972;SDS011;55298;-36.624;-64.282;2022-07-25T03:17:09;7.07;;;6.40;;
59972;SDS011;55298;-36.624;-64.282;2022-07-25T03:19:40;8.43;;;5.93;;
59972;SDS011;55298;-36.624;-64.282;2022-07-25T03:22:08;7.40;;;6.20;;
59972;SDS011;55298;-36.624;-64.282;2022-07-25T03:24:37;10.05;;;6.07;;
59972;SDS011;55298;-36.624;-64.282;2022-07-25T03:27:06;7.18;;;5.80;;
59972;SDS011;55298;-36.624;-64.282;2022-07-25T03:29:34;8.85;;;5.93;;
59972;SDS011;55298;-36.624;-64.282;2022-07-25T03:32:03;7.05;;;6.32;;
59972;SDS011;55298;-36.624;-64.282;2022-07-25T03:34:32;7.97;;;6.18;;
59972;SDS011;55298;-36.624;-64.282;2022-07-25T03:37:02;8.82;;;6.80;;
59972;SDS011;55298;-36.624;-64.282;2022-07-25T03:39:30;10.27;;;6.90;;
59972;SDS011;55298;-36.624;-64.282;2022-07-25T03:41:59;8.25;;;6.65;;
59972;SDS011;55298;-36.624;-64.282;2022-07-25T03:44:27;9.13;;;6.65;;
59972;SDS011;55298;-36.624;-64.282;2022-07-25T03:46:56;7.53;;;6.78;;
59972;SDS011;55298;-36.624;-64.282;2022-07-25T03:49:24;9.57;;;6.78;;
59972;SDS011;55298;-36.624;-64.282;2022-07-25T03:51:53;6.95;;;6.20;;
59972;SDS011;55298;-36.624;-64.282;2022-07-25T03:54:21;8.15;;;6.65;;
59972;SDS011;55298;-36.624;-64.282;2022-07-25T03:56:50;8.02;;;6.78;;
59972;SDS011;55298;-36.624;-64.282;2022-07-25T03:59:18;9.30;;;6.97;;
59972;SDS011;55298;-36.624;-64.282;2022-07-25T04:01:48;7.68;;;6.97;;
59972;SDS011;55298;-36.624;-64.282;2022-07-25T04:04:18;9.07;;;7.50;;
59972;SDS011;55298;-36.624;-64.282;2022-07-25T04:06:48;9.40;;;7.55;;
59972;SDS011;55298;-36.624;-64.282;2022-07-25T04:09:16;8.77;;;6.65;;
59972;SDS011;55298;-36.624;-64.282;2022-07-25T04:11:45;8.70;;;7.03;;
59972;SDS011;55298;-36.624;-64.282;2022-07-25T04:14:14;9.98;;;7.53;;
59972;SDS011;55298;-36.624;-64.282;2022-07-25T04:16:43;11.88;;;7.45;;
59972;SDS011;55298;-36.624;-64.282;2022-07-25T04:19:11;8.68;;;7.88;;
59972;SDS011;55298;-36.624;-64.282;2022-07-25T04:21:39;8.50;;;7.63;;
59972;SDS011;55298;-36.624;-64.282;2022-07-25T04:24:08;8.32;;;7.28;;
59972;SDS011;55298;-36.624;-64.282;2022-07-25T04:26:36;10.07;;;7.70;;
59972;SDS011;55298;-36.624;-64.282;2022-07-25T04:29:05;9.38;;;7.22;;
59972;SDS011;55298;-36.624;-64.282;2022-07-25T04:31:34;8.32;;;7.47;;
59972;SDS011;55298;-36.624;-64.282;2022-07-25T04:34:02;9.98;;;7.35;;
59972;SDS011;55298;-36.624;-64.282;2022-07-25T04:36:31;8.38;;;7.47;;
59972;SDS011;55298;-36.624;-64.282;2022-07-25T04:39:01;10.50;;;7.35;;
59972;SDS011;55298;-36.624;-64.282;2022-07-25T04:41:29;12.05;;;9.00;;
59972;SDS011;55298;-36.624;-64.282;2022-07-25T04:43:57;10.02;;;8.52;;
59972;SDS011;55298;-36.624;-64.282;2022-07-25T04:46:25;9.35;;;7.80;;
59972;SDS011;55298;-36.624;-64.282;2022-07-25T04:48:54;11.98;;;7.72;;
59972;SDS011;55298;-36.624;-64.282;2022-07-25T04:51:23;8.95;;;8.05;;
59972;SDS011;55298;-36.624;-64.282;2022-07-25T04:53:52;10.48;;;8.23;;
59972;SDS011;55298;-36.624;-64.282;2022-07-25T04:56:21;9.13;;;7.47;;
59972;SDS011;55298;-36.624;-64.282;2022-07-25T04:58:49;10.05;;;7.78;;
59972;SDS011;55298;-36.624;-64.282;2022-07-25T05:01:17;11.48;;;7.53;;
59972;SDS011;55298;-36.624;-64.282;2022-07-25T05:03:46;11.15;;;8.20;;
59972;SDS011;55298;-36.624;-64.282;2022-07-25T05:06:15;10.45;;;8.20;;
59972;SDS011;55298;-36.624;-64.282;2022-07-25T05:08:44;9.02;;;8.10;;
59972;SDS011;55298;-36.624;-64.282;2022-07-25T05:11:13;9.75;;;8.43;;
59972;SDS011;55298;-36.624;-64.282;2022-07-25T05:13:41;10.48;;;7.45;;
59972;SDS011;55298;-36.624;-64.282;2022-07-25T05:16:10;9.00;;;7.53;;
59972;SDS011;55298;-36.624;-64.282;2022-07-25T05:18:38;8.38;;;7.55;;
59972;SDS011;55298;-36.624;-64.282;2022-07-25T05:21:09;10.00;;;8.32;;
59972;SDS011;55298;-36.624;-64.282;2022-07-25T05:23:38;11.02;;;8.25;;
59972;SDS011;55298;-36.624;-64.282;2022-07-25T05:26:08;11.90;;;8.40;;
59972;SDS011;55298;-36.624;-64.282;2022-07-25T05:28:36;10.20;;;7.95;;
59972;SDS011;55298;-36.624;-64.282;2022-07-25T05:31:05;11.77;;;8.35;;
59972;SDS011;55298;-36.624;-64.282;2022-07-25T05:33:33;8.57;;;7.55;;
59972;SDS011;55298;-36.624;-64.282;2022-07-25T05:36:02;9.40;;;8.43;;
59972;SDS011;55298;-36.624;-64.282;2022-07-25T05:38:32;12.07;;;7.95;;
59972;SDS011;55298;-36.624;-64.282;2022-07-25T05:41:01;9.45;;;8.25;;
59972;SDS011;55298;-36.624;-64.282;2022-07-25T05:43:30;9.77;;;8.48;;
59972;SDS011;55298;-36.624;-64.282;2022-07-25T05:46:01;9.43;;;7.97;;
59972;SDS011;55298;-36.624;-64.282;2022-07-25T05:48:31;8.73;;;7.85;;
59972;SDS011;55298;-36.624;-64.282;2022-07-25T05:50:59;10.20;;;7.57;;
59972;SDS011;55298;-36.624;-64.282;2022-07-25T05:53:27;9.55;;;7.85;;
59972;SDS011;55298;-36.624;-64.282;2022-07-25T05:55:57;8.95;;;7.97;;
59972;SDS011;55298;-36.624;-64.282;2022-07-25T05:58:26;10.57;;;7.35;;
59972;SDS011;55298;-36.624;-64.282;2022-07-25T06:00:54;8.07;;;7.28;;
59972;SDS011;55298;-36.624;-64.282;2022-07-25T06:03:25;9.43;;;8.43;;
59972;SDS011;55298;-36.624;-64.282;2022-07-25T06:05:54;9.10;;;8.27;;
59972;SDS011;55298;-36.624;-64.282;2022-07-25T06:08:22;10.48;;;9.07;;
59972;SDS011;55298;-36.624;-64.282;2022-07-25T06:10:56;10.63;;;8.63;;
59972;SDS011;55298;-36.624;-64.282;2022-07-25T06:13:25;9.70;;;8.52;;
59972;SDS011;55298;-36.624;-64.282;2022-07-25T06:15:54;8.70;;;7.80;;
59972;SDS011;55298;-36.624;-64.282;2022-07-25T06:18:23;9.88;;;8.18;;
59972;SDS011;55298;-36.624;-64.282;2022-07-25T06:20:53;10.25;;;7.88;;
59972;SDS011;55298;-36.624;-64.282;2022-07-25T06:23:22;10.55;;;8.75;;
59972;SDS011;55298;-36.624;-64.282;2022-07-25T06:25:52;9.77;;;8.65;;
59972;SDS011;55298;-36.624;-64.282;2022-07-25T06:28:20;10.32;;;8.43;;
59972;SDS011;55298;-36.624;-64.282;2022-07-25T06:30:49;8.82;;;7.93;;
59972;SDS011;55298;-36.624;-64.282;2022-07-25T06:33:18;10.10;;;8.93;;
59972;SDS011;55298;-36.624;-64.282;2022-07-25T06:35:47;9.77;;;8.77;;
59972;SDS011;55298;-36.624;-64.282;2022-07-25T06:38:15;9.95;;;8.27;;
59972;SDS011;55298;-36.624;-64.282;2022-07-25T06:40:43;10.60;;;8.48;;
59972;SDS011;55298;-36.624;-64.282;2022-07-25T06:43:13;8.80;;;7.55;;
59972;SDS011;55298;-36.624;-64.282;2022-07-25T06:45:41;8.27;;;7.47;;
59972;SDS011;55298;-36.624;-64.282;2022-07-25T06:48:15;9.98;;;8.93;;
59972;SDS011;55298;-36.624;-64.282;2022-07-25T06:50:44;10.85;;;8.07;;
59972;SDS011;55298;-36.624;-64.282;2022-07-25T06:53:13;10.82;;;8.48;;
59972;SDS011;55298;-36.624;-64.282;2022-07-25T06:55:41;10.25;;;8.65;;
59972;SDS011;55298;-36.624;-64.282;2022-07-25T06:58:09;12.68;;;8.73;;
59972;SDS011;55298;-36.624;-64.282;2022-07-25T07:00:38;10.27;;;9.18;;
59972;SDS011;55298;-36.624;-64.282;2022-07-25T07:03:07;10.77;;;8.55;;
59972;SDS011;55298;-36.624;-64.282;2022-07-25T07:05:36;10.20;;;8.48;;
59972;SDS011;55298;-36.624;-64.282;2022-07-25T07:08:06;10.93;;;9.13;;
59972;SDS011;55298;-36.624;-64.282;2022-07-25T07:10:35;10.15;;;7.82;;
59972;SDS011;55298;-36.624;-64.282;2022-07-25T07:13:07;10.13;;;8.00;;
59972;SDS011;55298;-36.624;-64.282;2022-07-25T07:15:37;9.55;;;8.32;;
59972;SDS011;55298;-36.624;-64.282;2022-07-25T07:18:12;14.18;;;9.30;;
59972;SDS011;55298;-36.624;-64.282;2022-07-25T07:20:41;10.10;;;8.45;;
59972;SDS011;55298;-36.624;-64.282;2022-07-25T07:23:10;10.48;;;9.20;;
59972;SDS011;55298;-36.624;-64.282;2022-07-25T07:25:39;11.07;;;8.48;;
59972;SDS011;55298;-36.624;-64.282;2022-07-25T07:28:07;11.00;;;9.68;;
59972;SDS011;55298;-36.624;-64.282;2022-07-25T07:30:35;9.15;;;8.25;;
59972;SDS011;55298;-36.624;-64.282;2022-07-25T07:33:04;12.63;;;8.10;;
59972;SDS011;55298;-36.624;-64.282;2022-07-25T07:35:33;10.85;;;9.10;;
59972;SDS011;55298;-36.624;-64.282;2022-07-25T07:38:01;9.57;;;8.48;;
59972;SDS011;55298;-36.624;-64.282;2022-07-25T07:40:30;11.07;;;8.90;;
59972;SDS011;55298;-36.624;-64.282;2022-07-25T07:42:59;11.05;;;8.77;;
59972;SDS011;55298;-36.624;-64.282;2022-07-25T07:45:28;11.55;;;9.32;;
59972;SDS011;55298;-36.624;-64.282;2022-07-25T07:47:57;9.88;;;8.68;;
59972;SDS011;55298;-36.624;-64.282;2022-07-25T07:50:25;11.43;;;9.15;;
59972;SDS011;55298;-36.624;-64.282;2022-07-25T07:52:55;10.30;;;8.95;;
59972;SDS011;55298;-36.624;-64.282;2022-07-25T07:55:24;12.10;;;9.50;;
59972;SDS011;55298;-36.624;-64.282;2022-07-25T07:58:02;9.52;;;8.48;;
59972;SDS011;55298;-36.624;-64.282;2022-07-25T08:00:33;10.70;;;9.52;;
59972;SDS011;55298;-36.624;-64.282;2022-07-25T08:03:04;11.40;;;9.77;;
59972;SDS011;55298;-36.624;-64.282;2022-07-25T08:09:07;10.73;;;9.38;;
59972;SDS011;55298;-36.624;-64.282;2022-07-25T08:11:36;12.52;;;8.90;;
59972;SDS011;55298;-36.624;-64.282;2022-07-25T08:14:06;12.18;;;8.38;;
59972;SDS011;55298;-36.624;-64.282;2022-07-25T08:16:34;11.23;;;9.48;;
59972;SDS011;55298;-36.624;-64.282;2022-07-25T08:19:03;10.73;;;8.13;;
59972;SDS011;55298;-36.624;-64.282;2022-07-25T08:21:30;12.38;;;8.18;;
59972;SDS011;55298;-36.624;-64.282;2022-07-25T08:23:59;13.45;;;10.02;;
59972;SDS011;55298;-36.624;-64.282;2022-07-25T08:26:28;10.70;;;8.85;;
59972;SDS011;55298;-36.624;-64.282;2022-07-25T08:28:58;11.18;;;8.05;;
59972;SDS011;55298;-36.624;-64.282;2022-07-25T08:31:26;11.32;;;9.50;;
59972;SDS011;55298;-36.624;-64.282;2022-07-25T08:33:54;10.35;;;9.18;;
59972;SDS011;55298;-36.624;-64.282;2022-07-25T08:36:23;12.95;;;9.73;;
59972;SDS011;55298;-36.624;-64.282;2022-07-25T08:38:52;10.52;;;9.15;;
59972;SDS011;55298;-36.624;-64.282;2022-07-25T08:41:21;12.02;;;9.98;;
59972;SDS011;55298;-36.624;-64.282;2022-07-25T08:43:49;13.05;;;9.45;;
59972;SDS011;55298;-36.624;-64.282;2022-07-25T08:46:19;12.43;;;8.45;;
59972;SDS011;55298;-36.624;-64.282;2022-07-25T08:48:47;9.77;;;8.65;;
59972;SDS011;55298;-36.624;-64.282;2022-07-25T08:51:17;12.55;;;9.02;;
59972;SDS011;55298;-36.624;-64.282;2022-07-25T08:53:45;13.65;;;9.68;;
59972;SDS011;55298;-36.624;-64.282;2022-07-25T08:56:15;11.70;;;9.45;;
59972;SDS011;55298;-36.624;-64.282;2022-07-25T08:58:42;13.95;;;9.85;;
59972;SDS011;55298;-36.624;-64.282;2022-07-25T09:01:13;13.85;;;9.60;;
59972;SDS011;55298;-36.624;-64.282;2022-07-25T09:03:42;14.23;;;9.38;;
59972;SDS011;55298;-36.624;-64.282;2022-07-25T09:06:12;12.60;;;9.43;;
59972;SDS011;55298;-36.624;-64.282;2022-07-25T09:11:30;10.82;;;9.60;;
59972;SDS011;55298;-36.624;-64.282;2022-07-25T09:14:02;13.10;;;9.52;;
59972;SDS011;55298;-36.624;-64.282;2022-07-25T09:16:34;10.23;;;9.10;;
59972;SDS011;55298;-36.624;-64.282;2022-07-25T09:19:08;14.05;;;9.80;;
59972;SDS011;55298;-36.624;-64.282;2022-07-25T09:21:39;15.52;;;9.90;;
59972;SDS011;55298;-36.624;-64.282;2022-07-25T09:24:10;13.30;;;9.82;;
59972;SDS011;55298;-36.624;-64.282;2022-07-25T09:26:43;11.63;;;9.70;;
59972;SDS011;55298;-36.624;-64.282;2022-07-25T09:29:17;13.00;;;9.85;;
59972;SDS011;55298;-36.624;-64.282;2022-07-25T09:31:48;13.23;;;10.55;;
59972;SDS011;55298;-36.624;-64.282;2022-07-25T09:34:28;10.60;;;9.07;;
59972;SDS011;55298;-36.624;-64.282;2022-07-25T09:37:00;12.05;;;9.80;;
59972;SDS011;55298;-36.624;-64.282;2022-07-25T09:39:33;11.38;;;10.07;;
59972;SDS011;55298;-36.624;-64.282;2022-07-25T09:42:14;11.70;;;10.00;;
59972;SDS011;55298;-36.624;-64.282;2022-07-25T09:45:00;10.70;;;9.55;;
59972;SDS011;55298;-36.624;-64.282;2022-07-25T09:47:52;12.38;;;10.27;;
59972;SDS011;55298;-36.624;-64.282;2022-07-25T09:50:24;12.57;;;9.75;;
59972;SDS011;55298;-36.624;-64.282;2022-07-25T09:52:54;14.20;;;10.25;;
59972;SDS011;55298;-36.624;-64.282;2022-07-25T09:55:25;11.85;;;10.50;;
59972;SDS011;55298;-36.624;-64.282;2022-07-25T09:57:54;15.27;;;10.02;;
59972;SDS011;55298;-36.624;-64.282;2022-07-25T10:00:24;12.98;;;9.60;;
59972;SDS011;55298;-36.624;-64.282;2022-07-25T10:03:00;14.52;;;11.00;;
59972;SDS011;55298;-36.624;-64.282;2022-07-25T10:06:20;14.85;;;11.30;;
59972;SDS011;55298;-36.624;-64.282;2022-07-25T10:09:09;13.52;;;10.25;;
59972;SDS011;55298;-36.624;-64.282;2022-07-25T10:11:39;15.50;;;10.05;;
59972;SDS011;55298;-36.624;-64.282;2022-07-25T10:14:27;12.35;;;10.07;;
59972;SDS011;55298;-36.624;-64.282;2022-07-25T10:16:56;13.27;;;10.35;;
59972;SDS011;55298;-36.624;-64.282;2022-07-25T10:22:13;12.57;;;11.13;;
59972;SDS011;55298;-36.624;-64.282;2022-07-25T10:24:43;15.50;;;11.93;;
59972;SDS011;55298;-36.624;-64.282;2022-07-25T10:27:20;14.15;;;11.73;;
59972;SDS011;55298;-36.624;-64.282;2022-07-25T10:29:53;15.50;;;12.55;;
59972;SDS011;55298;-36.624;-64.282;2022-07-25T10:32:24;15.13;;;13.55;;
59972;SDS011;55298;-36.624;-64.282;2022-07-25T10:34:59;17.98;;;11.85;;
59972;SDS011;55298;-36.624;-64.282;2022-07-25T10:40:23;20.35;;;16.30;;
59972;SDS011;55298;-36.624;-64.282;2022-07-25T10:42:59;16.85;;;12.38;;
59972;SDS011;55298;-36.624;-64.282;2022-07-25T10:45:42;16.65;;;11.65;;
59972;SDS011;55298;-36.624;-64.282;2022-07-25T10:48:25;15.95;;;13.05;;
59972;SDS011;55298;-36.624;-64.282;2022-07-25T10:50:57;15.77;;;11.30;;
59972;SDS011;55298;-36.624;-64.282;2022-07-25T10:53:34;17.70;;;12.57;;
59972;SDS011;55298;-36.624;-64.282;2022-07-25T10:56:16;16.55;;;12.27;;
59972;SDS011;55298;-36.624;-64.282;2022-07-25T10:58:54;13.68;;;11.90;;
59972;SDS011;55298;-36.624;-64.282;2022-07-25T11:01:27;20.27;;;13.73;;
59972;SDS011;55298;-36.624;-64.282;2022-07-25T11:03:58;14.82;;;12.93;;
59972;SDS011;55298;-36.624;-64.282;2022-07-25T11:06:37;16.73;;;13.13;;
59972;SDS011;55298;-36.624;-64.282;2022-07-25T11:09:14;15.48;;;10.95;;
59972;SDS011;55298;-36.624;-64.282;2022-07-25T11:11:46;17.67;;;13.52;;
59972;SDS011;55298;-36.624;-64.282;2022-07-25T11:14:20;15.20;;;12.18;;
59972;SDS011;55298;-36.624;-64.282;2022-07-25T11:16:51;16.42;;;12.48;;
59972;SDS011;55298;-36.624;-64.282;2022-07-25T11:19:23;42.70;;;26.90;;
59972;SDS011;55298;-36.624;-64.282;2022-07-25T11:21:59;19.90;;;13.25;;
59972;SDS011;55298;-36.624;-64.282;2022-07-25T11:24:46;17.17;;;12.55;;
59972;SDS011;55298;-36.624;-64.282;2022-07-25T11:27:23;20.77;;;15.38;;
59972;SDS011;55298;-36.624;-64.282;2022-07-25T11:30:15;15.05;;;10.82;;
59972;SDS011;55298;-36.624;-64.282;2022-07-25T11:32:49;16.70;;;12.13;;
59972;SDS011;55298;-36.624;-64.282;2022-07-25T11:35:29;16.13;;;12.60;;
59972;SDS011;55298;-36.624;-64.282;2022-07-25T11:38:26;15.90;;;13.23;;
59972;SDS011;55298;-36.624;-64.282;2022-07-25T11:40:55;16.75;;;12.57;;
59972;SDS011;55298;-36.624;-64.282;2022-07-25T11:43:28;16.02;;;13.85;;
59972;SDS011;55298;-36.624;-64.282;2022-07-25T11:46:04;17.73;;;13.57;;
59972;SDS011;55298;-36.624;-64.282;2022-07-25T11:48:36;17.17;;;13.15;;
59972;SDS011;55298;-36.624;-64.282;2022-07-25T11:51:08;17.15;;;11.98;;
59972;SDS011;55298;-36.624;-64.282;2022-07-25T11:53:43;17.65;;;11.82;;
59972;SDS011;55298;-36.624;-64.282;2022-07-25T11:56:18;17.00;;;11.70;;
59972;SDS011;55298;-36.624;-64.282;2022-07-25T11:58:57;18.77;;;13.35;;
59972;SDS011;55298;-36.624;-64.282;2022-07-25T12:01:35;18.52;;;11.98;;
59972;SDS011;55298;-36.624;-64.282;2022-07-25T12:04:09;25.92;;;13.85;;
59972;SDS011;55298;-36.624;-64.282;2022-07-25T12:06:43;16.55;;;14.77;;
59972;SDS011;55298;-36.624;-64.282;2022-07-25T12:09:17;22.30;;;13.85;;
59972;SDS011;55298;-36.624;-64.282;2022-07-25T12:11:48;18.75;;;14.00;;
59972;SDS011;55298;-36.624;-64.282;2022-07-25T12:14:43;14.57;;;10.23;;
59972;SDS011;55298;-36.624;-64.282;2022-07-25T12:17:12;16.95;;;13.93;;
59972;SDS011;55298;-36.624;-64.282;2022-07-25T12:19:40;14.82;;;11.05;;
59972;SDS011;55298;-36.624;-64.282;2022-07-25T12:22:15;19.83;;;12.68;;
59972;SDS011;55298;-36.624;-64.282;2022-07-25T12:30:07;14.70;;;10.45;;
59972;SDS011;55298;-36.624;-64.282;2022-07-25T12:32:38;16.27;;;11.23;;
59972;SDS011;55298;-36.624;-64.282;2022-07-25T12:35:07;14.85;;;11.02;;
59972;SDS011;55298;-36.624;-64.282;2022-07-25T12:37:39;14.90;;;11.30;;
59972;SDS011;55298;-36.624;-64.282;2022-07-25T12:40:32;14.57;;;12.02;;
59972;SDS011;55298;-36.624;-64.282;2022-07-25T12:43:03;11.75;;;10.57;;
59972;SDS011;55298;-36.624;-64.282;2022-07-25T12:45:33;15.38;;;11.20;;
59972;SDS011;55298;-36.624;-64.282;2022-07-25T12:48:06;17.85;;;11.55;;
59972;SDS011;55298;-36.624;-64.282;2022-07-25T12:50:35;17.42;;;11.23;;
59972;SDS011;55298;-36.624;-64.282;2022-07-25T12:53:03;16.58;;;11.63;;
59972;SDS011;55298;-36.624;-64.282;2022-07-25T12:55:31;17.80;;;12.70;;
59972;SDS011;55298;-36.624;-64.282;2022-07-25T12:57:59;21.85;;;13.80;;
59972;SDS011;55298;-36.624;-64.282;2022-07-25T13:00:28;17.65;;;13.38;;
59972;SDS011;55298;-36.624;-64.282;2022-07-25T13:02:58;19.80;;;12.80;;
59972;SDS011;55298;-36.624;-64.282;2022-07-25T13:05:27;19.92;;;12.18;;
59972;SDS011;55298;-36.624;-64.282;2022-07-25T13:07:57;31.77;;;12.75;;
59972;SDS011;55298;-36.624;-64.282;2022-07-25T13:10:26;53.03;;;28.92;;
59972;SDS011;55298;-36.624;-64.282;2022-07-25T13:12:54;23.38;;;13.75;;
59972;SDS011;55298;-36.624;-64.282;2022-07-25T13:15:22;23.13;;;14.20;;
59972;SDS011;55298;-36.624;-64.282;2022-07-25T13:17:53;21.13;;;15.00;;
59972;SDS011;55298;-36.624;-64.282;2022-07-25T13:20:23;20.77;;;14.63;;
59972;SDS011;55298;-36.624;-64.282;2022-07-25T13:22:51;30.27;;;16.05;;
59972;SDS011;55298;-36.624;-64.282;2022-07-25T13:25:32;20.95;;;14.18;;
59972;SDS011;55298;-36.624;-64.282;2022-07-25T13:28:14;23.48;;;14.77;;
59972;SDS011;55298;-36.624;-64.282;2022-07-25T13:30:47;32.47;;;20.58;;
59972;SDS011;55298;-36.624;-64.282;2022-07-25T13:33:15;27.42;;;16.13;;
59972;SDS011;55298;-36.624;-64.282;2022-07-25T13:35:44;26.88;;;15.45;;
59972;SDS011;55298;-36.624;-64.282;2022-07-25T13:38:21;25.17;;;15.93;;
59972;SDS011;55298;-36.624;-64.282;2022-07-25T13:40:50;33.60;;;17.50;;
59972;SDS011;55298;-36.624;-64.282;2022-07-25T13:43:20;30.02;;;18.77;;
59972;SDS011;55298;-36.624;-64.282;2022-07-25T13:46:39;34.60;;;18.83;;
59972;SDS011;55298;-36.624;-64.282;2022-07-25T13:49:10;32.28;;;16.27;;
59972;SDS011;55298;-36.624;-64.282;2022-07-25T13:51:38;34.63;;;22.83;;
59972;SDS011;55298;-36.624;-64.282;2022-07-25T13:54:07;28.83;;;17.73;;
59972;SDS011;55298;-36.624;-64.282;2022-07-25T13:56:35;31.13;;;18.20;;
59972;SDS011;55298;-36.624;-64.282;2022-07-25T13:59:06;25.83;;;17.80;;
59972;SDS011;55298;-36.624;-64.282;2022-07-25T14:01:37;27.90;;;16.65;;
59972;SDS011;55298;-36.624;-64.282;2022-07-25T14:06:38;25.80;;;15.88;;
59972;SDS011;55298;-36.624;-64.282;2022-07-25T14:09:17;25.98;;;16.30;;
59972;SDS011;55298;-36.624;-64.282;2022-07-25T14:12:08;22.75;;;15.43;;
59972;SDS011;55298;-36.624;-64.282;2022-07-25T14:14:39;23.33;;;14.18;;
59972;SDS011;55298;-36.624;-64.282;2022-07-25T14:17:07;24.65;;;15.93;;
59972;SDS011;55298;-36.624;-64.282;2022-07-25T14:19:37;20.38;;;14.98;;
59972;SDS011;55298;-36.624;-64.282;2022-07-25T14:22:08;23.98;;;16.25;;
59972;SDS011;55298;-36.624;-64.282;2022-07-25T14:24:54;23.17;;;15.95;;
59972;SDS011;55298;-36.624;-64.282;2022-07-25T14:27:32;19.52;;;13.98;;
59972;SDS011;55298;-36.624;-64.282;2022-07-25T14:30:03;23.58;;;14.52;;
59972;SDS011;55298;-36.624;-64.282;2022-07-25T14:32:37;22.05;;;15.05;;
59972;SDS011;55298;-36.624;-64.282;2022-07-25T14:35:07;24.48;;;19.52;;
59972;SDS011;55298;-36.624;-64.282;2022-07-25T14:37:36;25.10;;;14.95;;
59972;SDS011;55298;-36.624;-64.282;2022-07-25T14:40:06;27.60;;;18.77;;